AAL3325 KORD-KBOS
Flight info
| Callsign | AAL3325 |
|---|---|
| Flight time | 1h 45m |
| Altitude | 35000 |
| Route | EBAKE WISMO POSTS PADDE SVM DKK PONCT JFUND2 |
| Aircraft | B738/M-SDE2E3FGHIRWXY/LB1 |
Departure
| Time | 2026-05-07 14:00 |
|---|---|
| Airport | Chicago O'Hare International Airport (KORD) |
Arrival
| Time | 2026-05-07 15:46 |
|---|---|
| Airport | Boston Logan International Airport (KBOS) |
| Time | Latitude | Longitude | Altitude | Speed | Heading |
|---|---|---|---|---|---|
| 2026-05-07 13:35 | 41.97266 | -87.90095 | 661 ft | 0 kts | 57° |
| 2026-05-07 13:49 | 41.97261 | -87.90104 | 661 ft | 1 kts | 29° |
| 2026-05-07 13:49 | 41.97248 | -87.90113 | 661 ft | 2 kts | 37° |
| 2026-05-07 13:49 | 41.97236 | -87.90125 | 661 ft | 2 kts | 35° |
| 2026-05-07 13:50 | 41.97224 | -87.90137 | 661 ft | 2 kts | 35° |
| 2026-05-07 13:50 | 41.97212 | -87.90148 | 661 ft | 2 kts | 35° |
| 2026-05-07 13:50 | 41.97204 | -87.90157 | 661 ft | 1 kts | 70° |
| 2026-05-07 13:50 | 41.97203 | -87.90165 | 661 ft | 0 kts | 94° |
| 2026-05-07 13:51 | 41.97203 | -87.90170 | 661 ft | 0 kts | 90° |
| 2026-05-07 13:52 | 41.97203 | -87.90165 | 661 ft | 2 kts | 90° |
| 2026-05-07 13:52 | 41.97207 | -87.90115 | 661 ft | 6 kts | 82° |
| 2026-05-07 13:53 | 41.97206 | -87.90045 | 661 ft | 11 kts | 91° |
| 2026-05-07 13:53 | 41.97205 | -87.89913 | 658 ft | 3 kts | 84° |
| 2026-05-07 13:53 | 41.97206 | -87.89904 | 658 ft | 0 kts | 82° |
| 2026-05-07 13:53 | 41.97207 | -87.89894 | 658 ft | 5 kts | 76° |
| 2026-05-07 13:54 | 41.97242 | -87.89799 | 657 ft | 17 kts | 57° |
| 2026-05-07 13:54 | 41.97232 | -87.89629 | 654 ft | 19 kts | 70° |
| 2026-05-07 13:54 | 41.97195 | -87.89483 | 654 ft | 17 kts | 105° |
| 2026-05-07 13:54 | 41.97103 | -87.89437 | 654 ft | 14 kts | 183° |
| 2026-05-07 13:55 | 41.97042 | -87.89373 | 654 ft | 12 kts | 85° |
| 2026-05-07 13:55 | 41.97044 | -87.89262 | 654 ft | 11 kts | 88° |
| 2026-05-07 13:55 | 41.97045 | -87.89157 | 654 ft | 10 kts | 91° |
| 2026-05-07 13:55 | 41.97027 | -87.89070 | 654 ft | 6 kts | 127° |
| 2026-05-07 13:56 | 41.96961 | -87.89071 | 654 ft | 12 kts | 183° |
| 2026-05-07 13:56 | 41.96856 | -87.89071 | 653 ft | 18 kts | 178° |
| 2026-05-07 13:56 | 41.96757 | -87.89169 | 651 ft | 18 kts | 234° |
| 2026-05-07 13:56 | 41.96647 | -87.89202 | 650 ft | 16 kts | 180° |
| 2026-05-07 13:57 | 41.96529 | -87.89200 | 648 ft | 17 kts | 179° |
| 2026-05-07 13:57 | 41.96423 | -87.89178 | 649 ft | 14 kts | 129° |
| 2026-05-07 13:57 | 41.96413 | -87.89058 | 652 ft | 11 kts | 88° |
| 2026-05-07 13:57 | 41.96417 | -87.88961 | 653 ft | 9 kts | 70° |
| 2026-05-07 13:58 | 41.96483 | -87.88876 | 653 ft | 16 kts | 43° |
| 2026-05-07 13:58 | 41.96585 | -87.88757 | 654 ft | 20 kts | 41° |
| 2026-05-07 13:58 | 41.96603 | -87.88644 | 654 ft | 16 kts | 186° |
| 2026-05-07 13:58 | 41.96493 | -87.88673 | 654 ft | 15 kts | 194° |
| 2026-05-07 13:59 | 41.96390 | -87.88714 | 654 ft | 14 kts | 203° |
| 2026-05-07 13:59 | 41.96340 | -87.88752 | 654 ft | 0 kts | 220° |
| 2026-05-07 13:59 | 41.96339 | -87.88753 | 654 ft | 0 kts | 220° |
| 2026-05-07 14:00 | 41.96199 | -87.88917 | 654 ft | 62 kts | 222° |
| 2026-05-07 14:00 | 41.95672 | -87.89545 | 658 ft | 138 kts | 221° |
| 2026-05-07 14:00 | 41.94868 | -87.90488 | 1230 ft | 157 kts | 222° |
| 2026-05-07 14:00 | 41.94096 | -87.91396 | 2194 ft | 148 kts | 218° |
| 2026-05-07 14:01 | 41.93068 | -87.91749 | 2527 ft | 168 kts | 173° |
| 2026-05-07 14:01 | 41.91990 | -87.90968 | 2875 ft | 187 kts | 136° |
| 2026-05-07 14:01 | 41.91321 | -87.89411 | 3182 ft | 206 kts | 103° |
| 2026-05-07 14:01 | 41.91467 | -87.87483 | 3451 ft | 223 kts | 62° |
| 2026-05-07 14:02 | 41.92348 | -87.85706 | 3874 ft | 235 kts | 50° |
| 2026-05-07 14:02 | 41.93339 | -87.83879 | 4279 ft | 251 kts | 53° |
| 2026-05-07 14:02 | 41.94313 | -87.81870 | 4668 ft | 267 kts | 55° |
| 2026-05-07 14:02 | 41.95313 | -87.79671 | 5100 ft | 281 kts | 56° |
| 2026-05-07 14:03 | 41.96316 | -87.77419 | 5763 ft | 285 kts | 55° |
| 2026-05-07 14:03 | 41.97342 | -87.75121 | 6413 ft | 289 kts | 55° |
| 2026-05-07 14:03 | 41.98382 | -87.72802 | 7122 ft | 292 kts | 54° |
| 2026-05-07 14:03 | 41.99429 | -87.70475 | 7850 ft | 294 kts | 54° |
| 2026-05-07 14:04 | 42.00482 | -87.68131 | 8617 ft | 295 kts | 54° |
| 2026-05-07 14:04 | 42.01554 | -87.65745 | 9336 ft | 299 kts | 53° |
| 2026-05-07 14:04 | 42.02618 | -87.63378 | 10093 ft | 301 kts | 53° |
| 2026-05-07 14:04 | 42.03736 | -87.60896 | 10527 ft | 316 kts | 53° |
| 2026-05-07 14:05 | 42.04907 | -87.58301 | 10907 ft | 333 kts | 53° |
| 2026-05-07 14:05 | 42.06130 | -87.55585 | 11295 ft | 348 kts | 54° |
| 2026-05-07 14:05 | 42.07399 | -87.52756 | 11669 ft | 364 kts | 54° |
| 2026-05-07 14:05 | 42.08737 | -87.49761 | 12137 ft | 376 kts | 54° |
| 2026-05-07 14:06 | 42.10078 | -87.46746 | 12846 ft | 381 kts | 54° |
| 2026-05-07 14:06 | 42.11457 | -87.43639 | 13534 ft | 387 kts | 54° |
| 2026-05-07 14:06 | 42.12830 | -87.40546 | 14245 ft | 392 kts | 55° |
| 2026-05-07 14:06 | 42.14236 | -87.37378 | 14929 ft | 398 kts | 55° |
| 2026-05-07 14:07 | 42.15665 | -87.34162 | 15642 ft | 403 kts | 56° |
| 2026-05-07 14:07 | 42.17116 | -87.30899 | 16321 ft | 409 kts | 56° |
| 2026-05-07 14:07 | 42.18592 | -87.27577 | 16945 ft | 415 kts | 56° |
| 2026-05-07 14:07 | 42.20083 | -87.24223 | 17571 ft | 421 kts | 56° |
| 2026-05-07 14:08 | 42.21576 | -87.20853 | 18230 ft | 425 kts | 56° |
| 2026-05-07 14:08 | 42.23096 | -87.17416 | 18875 ft | 430 kts | 57° |
| 2026-05-07 14:08 | 42.24628 | -87.13940 | 19479 ft | 435 kts | 56° |
| 2026-05-07 14:08 | 42.26127 | -87.10410 | 20039 ft | 441 kts | 60° |
| 2026-05-07 14:09 | 42.27340 | -87.06566 | 20651 ft | 448 kts | 69° |
| 2026-05-07 14:09 | 42.28102 | -87.02462 | 21212 ft | 454 kts | 79° |
| 2026-05-07 14:09 | 42.28502 | -86.98238 | 21759 ft | 459 kts | 84° |
| 2026-05-07 14:09 | 42.28730 | -86.93909 | 22229 ft | 465 kts | 87° |
| 2026-05-07 14:10 | 42.28881 | -86.89581 | 22750 ft | 469 kts | 88° |
| 2026-05-07 14:10 | 42.29007 | -86.85164 | 23310 ft | 472 kts | 88° |
| 2026-05-07 14:10 | 42.29129 | -86.80724 | 23707 ft | 479 kts | 88° |
| 2026-05-07 14:10 | 42.29259 | -86.76214 | 24242 ft | 482 kts | 88° |
| 2026-05-07 14:11 | 42.29399 | -86.71679 | 24686 ft | 486 kts | 88° |
| 2026-05-07 14:11 | 42.29549 | -86.67110 | 25026 ft | 493 kts | 88° |
| 2026-05-07 14:11 | 42.29708 | -86.62487 | 25462 ft | 496 kts | 87° |
| 2026-05-07 14:11 | 42.29873 | -86.57821 | 25862 ft | 501 kts | 88° |
| 2026-05-07 14:12 | 42.30042 | -86.53136 | 26294 ft | 504 kts | 87° |
| 2026-05-07 14:12 | 42.30215 | -86.48356 | 26656 ft | 509 kts | 88° |
| 2026-05-07 14:12 | 42.30387 | -86.43597 | 27177 ft | 509 kts | 88° |
| 2026-05-07 14:12 | 42.30559 | -86.38850 | 27661 ft | 509 kts | 88° |
| 2026-05-07 14:13 | 42.30730 | -86.34082 | 28078 ft | 511 kts | 89° |
| 2026-05-07 14:13 | 42.30899 | -86.29308 | 28508 ft | 513 kts | 88° |
| 2026-05-07 14:13 | 42.31066 | -86.24519 | 28947 ft | 513 kts | 89° |
| 2026-05-07 14:13 | 42.31234 | -86.19647 | 29309 ft | 516 kts | 89° |
| 2026-05-07 14:14 | 42.31396 | -86.14893 | 29714 ft | 516 kts | 89° |
| 2026-05-07 14:14 | 42.31558 | -86.10023 | 30061 ft | 518 kts | 89° |
| 2026-05-07 14:14 | 42.31672 | -86.05151 | 30482 ft | 517 kts | 91° |
| 2026-05-07 14:14 | 42.31682 | -86.00354 | 30845 ft | 517 kts | 93° |
| 2026-05-07 14:15 | 42.31623 | -85.95499 | 31183 ft | 517 kts | 93° |
| 2026-05-07 14:15 | 42.31532 | -85.90688 | 31548 ft | 516 kts | 93° |
| 2026-05-07 14:15 | 42.31433 | -85.85864 | 31944 ft | 515 kts | 94° |
| 2026-05-07 14:15 | 42.31335 | -85.81004 | 32219 ft | 517 kts | 93° |
| 2026-05-07 14:16 | 42.31239 | -85.76158 | 32537 ft | 518 kts | 93° |
| 2026-05-07 14:16 | 42.31151 | -85.71348 | 32897 ft | 516 kts | 93° |
| 2026-05-07 14:16 | 42.31069 | -85.66497 | 33221 ft | 516 kts | 92° |
| 2026-05-07 14:16 | 42.30991 | -85.61710 | 33487 ft | 518 kts | 92° |
| 2026-05-07 14:17 | 42.30915 | -85.56810 | 33759 ft | 518 kts | 92° |
| 2026-05-07 14:17 | 42.30842 | -85.52005 | 34156 ft | 516 kts | 92° |
| 2026-05-07 14:17 | 42.30767 | -85.47198 | 34545 ft | 513 kts | 92° |
| 2026-05-07 14:17 | 42.30690 | -85.42356 | 34926 ft | 511 kts | 92° |
| 2026-05-07 14:18 | 42.30613 | -85.37570 | 34994 ft | 515 kts | 92° |
| 2026-05-07 14:18 | 42.30452 | -85.27940 | 35010 ft | 515 kts | 93° |
| 2026-05-07 14:19 | 42.30286 | -85.18364 | 35008 ft | 512 kts | 93° |
| 2026-05-07 14:19 | 42.30110 | -85.08772 | 35011 ft | 513 kts | 93° |
| 2026-05-07 14:20 | 42.29921 | -84.99135 | 35003 ft | 515 kts | 93° |
| 2026-05-07 14:20 | 42.29700 | -84.89532 | 35007 ft | 513 kts | 94° |
| 2026-05-07 14:21 | 42.29457 | -84.79942 | 35000 ft | 514 kts | 94° |
| 2026-05-07 14:21 | 42.29208 | -84.70342 | 35000 ft | 513 kts | 93° |
| 2026-05-07 14:22 | 42.28956 | -84.60718 | 34997 ft | 513 kts | 94° |
| 2026-05-07 14:22 | 42.28773 | -84.51093 | 35002 ft | 515 kts | 91° |
| 2026-05-07 14:23 | 42.29338 | -84.41528 | 34995 ft | 515 kts | 81° |
| 2026-05-07 14:23 | 42.30583 | -84.31963 | 34989 ft | 516 kts | 78° |
| 2026-05-07 14:24 | 42.32011 | -84.22515 | 34990 ft | 514 kts | 78° |
| 2026-05-07 14:24 | 42.33426 | -84.13071 | 34983 ft | 516 kts | 78° |
| 2026-05-07 14:25 | 42.34788 | -84.03642 | 34992 ft | 514 kts | 78° |
| 2026-05-07 14:25 | 42.36128 | -83.94120 | 34980 ft | 515 kts | 79° |
| 2026-05-07 14:26 | 42.37441 | -83.84632 | 34986 ft | 513 kts | 79° |
| 2026-05-07 14:26 | 42.38732 | -83.75222 | 34984 ft | 513 kts | 78° |
| 2026-05-07 14:27 | 42.40026 | -83.65716 | 34982 ft | 514 kts | 79° |
| 2026-05-07 14:27 | 42.41124 | -83.56261 | 34982 ft | 513 kts | 84° |
| 2026-05-07 14:28 | 42.41592 | -83.46625 | 34980 ft | 513 kts | 88° |
| 2026-05-07 14:28 | 42.41847 | -83.37038 | 34983 ft | 512 kts | 88° |
| 2026-05-07 14:29 | 42.42099 | -83.27508 | 34985 ft | 512 kts | 89° |
| 2026-05-07 14:29 | 42.42383 | -83.17870 | 34977 ft | 512 kts | 89° |
| 2026-05-07 14:30 | 42.42691 | -83.08277 | 34978 ft | 513 kts | 88° |
| 2026-05-07 14:30 | 42.43007 | -82.98583 | 34976 ft | 515 kts | 88° |
| 2026-05-07 14:31 | 42.43318 | -82.88952 | 34973 ft | 513 kts | 88° |
| 2026-05-07 14:31 | 42.43621 | -82.79314 | 34975 ft | 514 kts | 88° |
| 2026-05-07 14:32 | 42.43913 | -82.69701 | 34971 ft | 513 kts | 88° |
| 2026-05-07 14:32 | 42.44197 | -82.60109 | 34971 ft | 513 kts | 88° |
| 2026-05-07 14:33 | 42.44473 | -82.50433 | 34963 ft | 514 kts | 88° |
| 2026-05-07 14:33 | 42.44742 | -82.40747 | 34966 ft | 514 kts | 89° |
| 2026-05-07 14:34 | 42.45003 | -82.31123 | 34965 ft | 511 kts | 89° |
| 2026-05-07 14:34 | 42.45252 | -82.21531 | 34968 ft | 513 kts | 89° |
| 2026-05-07 14:35 | 42.45494 | -82.11855 | 34965 ft | 513 kts | 89° |
| 2026-05-07 14:35 | 42.45729 | -82.02260 | 34972 ft | 512 kts | 89° |
| 2026-05-07 14:36 | 42.45958 | -81.92572 | 34968 ft | 513 kts | 89° |
| 2026-05-07 14:36 | 42.46179 | -81.82962 | 34963 ft | 512 kts | 89° |
| 2026-05-07 14:37 | 42.46392 | -81.73353 | 34959 ft | 512 kts | 89° |
| 2026-05-07 14:37 | 42.46694 | -81.58929 | 34960 ft | 512 kts | 89° |
| 2026-05-07 14:38 | 42.46884 | -81.49329 | 34959 ft | 511 kts | 89° |
| 2026-05-07 14:38 | 42.47065 | -81.39760 | 34958 ft | 512 kts | 89° |
| 2026-05-07 14:39 | 42.47236 | -81.30096 | 34954 ft | 512 kts | 90° |
| 2026-05-07 14:39 | 42.47400 | -81.20516 | 34954 ft | 512 kts | 90° |
| 2026-05-07 14:40 | 42.47560 | -81.10876 | 34950 ft | 512 kts | 90° |
| 2026-05-07 14:40 | 42.47713 | -81.01318 | 34948 ft | 511 kts | 90° |
| 2026-05-07 14:41 | 42.47861 | -80.91652 | 34949 ft | 511 kts | 90° |
| 2026-05-07 14:41 | 42.47997 | -80.82050 | 34946 ft | 511 kts | 90° |
| 2026-05-07 14:42 | 42.48122 | -80.72455 | 34946 ft | 512 kts | 90° |
| 2026-05-07 14:42 | 42.48239 | -80.62829 | 34946 ft | 512 kts | 90° |
| 2026-05-07 14:43 | 42.48350 | -80.53204 | 34944 ft | 513 kts | 90° |
| 2026-05-07 14:43 | 42.48454 | -80.43566 | 34942 ft | 513 kts | 90° |
| 2026-05-07 14:44 | 42.48548 | -80.33912 | 34942 ft | 512 kts | 91° |
| 2026-05-07 14:44 | 42.48636 | -80.24294 | 34941 ft | 511 kts | 91° |
| 2026-05-07 14:45 | 42.48714 | -80.14671 | 34949 ft | 511 kts | 91° |
| 2026-05-07 14:45 | 42.48782 | -80.05088 | 34950 ft | 513 kts | 91° |
| 2026-05-07 14:46 | 42.48842 | -79.95430 | 34955 ft | 513 kts | 91° |
| 2026-05-07 14:46 | 42.48895 | -79.85847 | 34958 ft | 511 kts | 91° |
| 2026-05-07 14:47 | 42.48941 | -79.76244 | 34960 ft | 512 kts | 92° |
| 2026-05-07 14:47 | 42.48979 | -79.66627 | 34957 ft | 513 kts | 92° |
| 2026-05-07 14:48 | 42.49003 | -79.56995 | 34956 ft | 514 kts | 92° |
| 2026-05-07 14:48 | 42.49015 | -79.47298 | 34957 ft | 514 kts | 92° |
| 2026-05-07 14:49 | 42.49034 | -79.37713 | 34958 ft | 514 kts | 92° |
| 2026-05-07 14:49 | 42.49079 | -79.28017 | 34960 ft | 512 kts | 91° |
| 2026-05-07 14:50 | 42.49521 | -79.18422 | 34959 ft | 516 kts | 87° |
| 2026-05-07 14:50 | 42.50218 | -79.08764 | 34959 ft | 517 kts | 85° |
| 2026-05-07 14:51 | 42.50957 | -78.99116 | 34958 ft | 515 kts | 86° |
| 2026-05-07 14:51 | 42.51659 | -78.89532 | 34945 ft | 516 kts | 86° |
| 2026-05-07 14:52 | 42.52332 | -78.79834 | 34939 ft | 516 kts | 86° |
| 2026-05-07 14:52 | 42.52978 | -78.70186 | 34935 ft | 517 kts | 86° |
| 2026-05-07 14:53 | 42.53612 | -78.60483 | 34932 ft | 516 kts | 86° |
| 2026-05-07 14:53 | 42.54236 | -78.50829 | 34931 ft | 517 kts | 86° |
| 2026-05-07 14:54 | 42.54854 | -78.41125 | 34927 ft | 517 kts | 86° |
| 2026-05-07 14:54 | 42.55460 | -78.31462 | 34919 ft | 517 kts | 87° |
| 2026-05-07 14:55 | 42.56062 | -78.21771 | 34911 ft | 518 kts | 87° |
| 2026-05-07 14:55 | 42.56660 | -78.12041 | 34909 ft | 517 kts | 88° |
| 2026-05-07 14:56 | 42.57242 | -78.02413 | 34910 ft | 517 kts | 88° |
| 2026-05-07 14:56 | 42.57819 | -77.92715 | 34923 ft | 518 kts | 87° |
| 2026-05-07 14:57 | 42.58389 | -77.82981 | 34935 ft | 518 kts | 87° |
| 2026-05-07 14:57 | 42.58946 | -77.73276 | 34945 ft | 518 kts | 88° |
| 2026-05-07 14:58 | 42.59489 | -77.63519 | 34946 ft | 519 kts | 88° |
| 2026-05-07 14:58 | 42.60022 | -77.53770 | 34941 ft | 518 kts | 88° |
| 2026-05-07 14:59 | 42.60558 | -77.44069 | 34932 ft | 519 kts | 88° |
| 2026-05-07 14:59 | 42.61102 | -77.34323 | 34926 ft | 519 kts | 89° |
| 2026-05-07 15:00 | 42.61631 | -77.24625 | 34936 ft | 519 kts | 88° |
| 2026-05-07 15:00 | 42.62146 | -77.14877 | 34942 ft | 520 kts | 89° |
| 2026-05-07 15:01 | 42.62655 | -77.05080 | 34951 ft | 519 kts | 89° |
| 2026-05-07 15:01 | 42.63152 | -76.95293 | 34955 ft | 520 kts | 89° |
| 2026-05-07 15:02 | 42.63640 | -76.85538 | 34952 ft | 521 kts | 89° |
| 2026-05-07 15:02 | 42.64124 | -76.75767 | 34954 ft | 520 kts | 89° |
| 2026-05-07 15:03 | 42.64599 | -76.65964 | 34956 ft | 522 kts | 89° |
| 2026-05-07 15:03 | 42.65062 | -76.56194 | 34955 ft | 523 kts | 89° |
| 2026-05-07 15:04 | 42.65520 | -76.46355 | 34951 ft | 522 kts | 89° |
| 2026-05-07 15:04 | 42.65972 | -76.36500 | 34940 ft | 524 kts | 89° |
| 2026-05-07 15:05 | 42.66413 | -76.26660 | 34942 ft | 523 kts | 90° |
| 2026-05-07 15:05 | 42.66843 | -76.16860 | 34931 ft | 524 kts | 90° |
| 2026-05-07 15:06 | 42.67268 | -76.06998 | 34926 ft | 525 kts | 90° |
| 2026-05-07 15:06 | 42.67687 | -75.97141 | 34924 ft | 525 kts | 90° |
| 2026-05-07 15:07 | 42.68099 | -75.87271 | 34923 ft | 524 kts | 90° |
| 2026-05-07 15:07 | 42.68502 | -75.77374 | 34923 ft | 525 kts | 90° |
| 2026-05-07 15:08 | 42.68894 | -75.67497 | 34930 ft | 525 kts | 90° |
| 2026-05-07 15:08 | 42.69281 | -75.57623 | 34927 ft | 526 kts | 90° |
| 2026-05-07 15:09 | 42.69658 | -75.47757 | 34927 ft | 526 kts | 90° |
| 2026-05-07 15:09 | 42.70028 | -75.37837 | 34922 ft | 526 kts | 90° |
| 2026-05-07 15:10 | 42.70385 | -75.27942 | 34919 ft | 526 kts | 91° |
| 2026-05-07 15:10 | 42.70733 | -75.18096 | 34909 ft | 528 kts | 92° |
| 2026-05-07 15:11 | 42.71076 | -75.08176 | 34902 ft | 527 kts | 91° |
| 2026-05-07 15:11 | 42.71409 | -74.98254 | 34893 ft | 528 kts | 92° |
| 2026-05-07 15:12 | 42.71731 | -74.88390 | 34883 ft | 529 kts | 91° |
| 2026-05-07 15:12 | 42.72049 | -74.78464 | 34882 ft | 530 kts | 91° |
| 2026-05-07 15:13 | 42.72361 | -74.68499 | 34887 ft | 529 kts | 91° |
| 2026-05-07 15:13 | 42.72664 | -74.58501 | 34885 ft | 532 kts | 91° |
| 2026-05-07 15:14 | 42.72954 | -74.48533 | 34884 ft | 530 kts | 92° |
| 2026-05-07 15:14 | 42.73238 | -74.38554 | 34891 ft | 530 kts | 92° |
| 2026-05-07 15:15 | 42.73514 | -74.28537 | 34905 ft | 532 kts | 93° |
| 2026-05-07 15:15 | 42.73777 | -74.18572 | 34905 ft | 532 kts | 93° |
| 2026-05-07 15:16 | 42.74039 | -74.08494 | 34920 ft | 534 kts | 93° |
| 2026-05-07 15:16 | 42.74293 | -73.98414 | 34917 ft | 535 kts | 92° |
| 2026-05-07 15:17 | 42.74534 | -73.88399 | 34919 ft | 536 kts | 93° |
| 2026-05-07 15:17 | 42.74755 | -73.78277 | 34916 ft | 535 kts | 94° |
| 2026-05-07 15:18 | 42.74765 | -73.68274 | 34920 ft | 534 kts | 96° |
| 2026-05-07 15:18 | 42.74646 | -73.58204 | 34873 ft | 528 kts | 97° |
| 2026-05-07 15:19 | 42.74579 | -73.53245 | 34563 ft | 524 kts | 96° |
| 2026-05-07 15:19 | 42.74512 | -73.48302 | 34059 ft | 530 kts | 97° |
| 2026-05-07 15:19 | 42.74445 | -73.43306 | 33580 ft | 534 kts | 96° |
| 2026-05-07 15:19 | 42.74382 | -73.38248 | 33102 ft | 535 kts | 96° |
| 2026-05-07 15:20 | 42.74324 | -73.33219 | 32531 ft | 536 kts | 97° |
| 2026-05-07 15:20 | 42.74271 | -73.28190 | 31983 ft | 536 kts | 97° |
| 2026-05-07 15:20 | 42.74218 | -73.23097 | 31453 ft | 535 kts | 97° |
| 2026-05-07 15:20 | 42.74165 | -73.18115 | 30867 ft | 534 kts | 97° |
| 2026-05-07 15:21 | 42.74089 | -73.13021 | 30308 ft | 532 kts | 99° |
| 2026-05-07 15:21 | 42.73835 | -73.08053 | 29740 ft | 527 kts | 103° |
| 2026-05-07 15:21 | 42.73403 | -73.03159 | 29144 ft | 522 kts | 105° |
| 2026-05-07 15:21 | 42.72866 | -72.98307 | 28613 ft | 518 kts | 107° |
| 2026-05-07 15:22 | 42.72281 | -72.93529 | 28054 ft | 515 kts | 107° |
| 2026-05-07 15:22 | 42.71676 | -72.88785 | 27500 ft | 512 kts | 107° |
| 2026-05-07 15:22 | 42.71062 | -72.84003 | 26952 ft | 509 kts | 107° |
| 2026-05-07 15:22 | 42.70459 | -72.79266 | 26401 ft | 506 kts | 106° |
| 2026-05-07 15:23 | 42.69877 | -72.74631 | 25881 ft | 502 kts | 106° |
| 2026-05-07 15:23 | 42.69302 | -72.69980 | 25319 ft | 499 kts | 105° |
| 2026-05-07 15:23 | 42.68735 | -72.65332 | 24785 ft | 495 kts | 105° |
| 2026-05-07 15:23 | 42.68181 | -72.60769 | 24246 ft | 491 kts | 105° |
| 2026-05-07 15:24 | 42.67633 | -72.56267 | 23726 ft | 486 kts | 105° |
| 2026-05-07 15:24 | 42.67082 | -72.51746 | 23174 ft | 482 kts | 104° |
| 2026-05-07 15:24 | 42.66540 | -72.47315 | 22642 ft | 476 kts | 105° |
| 2026-05-07 15:24 | 42.66002 | -72.42915 | 22135 ft | 471 kts | 105° |
| 2026-05-07 15:25 | 42.65470 | -72.38586 | 21625 ft | 466 kts | 104° |
| 2026-05-07 15:25 | 42.64939 | -72.34270 | 21120 ft | 460 kts | 105° |
| 2026-05-07 15:25 | 42.64418 | -72.30019 | 20784 ft | 449 kts | 105° |
| 2026-05-07 15:25 | 42.63931 | -72.25899 | 20606 ft | 435 kts | 105° |
| 2026-05-07 15:26 | 42.63473 | -72.21932 | 20428 ft | 422 kts | 105° |
| 2026-05-07 15:26 | 42.63029 | -72.18057 | 20269 ft | 409 kts | 105° |
| 2026-05-07 15:26 | 42.62603 | -72.14334 | 20147 ft | 396 kts | 106° |
| 2026-05-07 15:26 | 42.62180 | -72.10655 | 19945 ft | 387 kts | 106° |
| 2026-05-07 15:27 | 42.61766 | -72.07128 | 19607 ft | 383 kts | 105° |
| 2026-05-07 15:27 | 42.61341 | -72.03552 | 19172 ft | 381 kts | 106° |
| 2026-05-07 15:27 | 42.60914 | -72.00043 | 18816 ft | 377 kts | 106° |
| 2026-05-07 15:27 | 42.60480 | -71.96569 | 18465 ft | 372 kts | 106° |
| 2026-05-07 15:28 | 42.60046 | -71.93129 | 18044 ft | 370 kts | 107° |
| 2026-05-07 15:28 | 42.59610 | -71.89697 | 17625 ft | 369 kts | 107° |
| 2026-05-07 15:28 | 42.59180 | -71.86285 | 17206 ft | 367 kts | 106° |
| 2026-05-07 15:28 | 42.58751 | -71.82880 | 16781 ft | 366 kts | 107° |
| 2026-05-07 15:29 | 42.58295 | -71.79479 | 16411 ft | 362 kts | 108° |
| 2026-05-07 15:29 | 42.57793 | -71.76207 | 16072 ft | 358 kts | 109° |
| 2026-05-07 15:29 | 42.57258 | -71.72916 | 15639 ft | 358 kts | 110° |
| 2026-05-07 15:29 | 42.56717 | -71.69625 | 15240 ft | 356 kts | 110° |
| 2026-05-07 15:30 | 42.56190 | -71.66393 | 14904 ft | 352 kts | 110° |
| 2026-05-07 15:30 | 42.55661 | -71.63119 | 14456 ft | 353 kts | 110° |
| 2026-05-07 15:30 | 42.55142 | -71.59893 | 14075 ft | 351 kts | 109° |
| 2026-05-07 15:30 | 42.54588 | -71.56694 | 13720 ft | 347 kts | 112° |
| 2026-05-07 15:31 | 42.53954 | -71.53543 | 13350 ft | 344 kts | 113° |
| 2026-05-07 15:31 | 42.53291 | -71.50457 | 13021 ft | 340 kts | 114° |
| 2026-05-07 15:31 | 42.52630 | -71.47409 | 12638 ft | 339 kts | 113° |
| 2026-05-07 15:31 | 42.51974 | -71.44351 | 12303 ft | 336 kts | 112° |
| 2026-05-07 15:32 | 42.51334 | -71.41328 | 11914 ft | 336 kts | 112° |
| 2026-05-07 15:32 | 42.50699 | -71.38298 | 11592 ft | 332 kts | 112° |
| 2026-05-07 15:32 | 42.50077 | -71.35300 | 11269 ft | 329 kts | 111° |
| 2026-05-07 15:32 | 42.49480 | -71.32340 | 11015 ft | 324 kts | 111° |
| 2026-05-07 15:33 | 42.48901 | -71.29427 | 10636 ft | 323 kts | 111° |
| 2026-05-07 15:33 | 42.48318 | -71.26483 | 10309 ft | 320 kts | 110° |
| 2026-05-07 15:33 | 42.47744 | -71.23594 | 9902 ft | 320 kts | 110° |
| 2026-05-07 15:33 | 42.47168 | -71.20715 | 9652 ft | 314 kts | 110° |
| 2026-05-07 15:34 | 42.46595 | -71.17851 | 9294 ft | 313 kts | 110° |
| 2026-05-07 15:34 | 42.46102 | -71.15026 | 8943 ft | 313 kts | 103° |
| 2026-05-07 15:34 | 42.45777 | -71.12112 | 8650 ft | 310 kts | 99° |
| 2026-05-07 15:34 | 42.45523 | -71.09240 | 8353 ft | 306 kts | 99° |
| 2026-05-07 15:35 | 42.45285 | -71.06383 | 8046 ft | 303 kts | 98° |
| 2026-05-07 15:35 | 42.44980 | -71.03626 | 7922 ft | 291 kts | 106° |
| 2026-05-07 15:35 | 42.44258 | -71.01167 | 7797 ft | 274 kts | 128° |
| 2026-05-07 15:35 | 42.43118 | -70.99171 | 7546 ft | 267 kts | 136° |
| 2026-05-07 15:36 | 42.41879 | -70.97297 | 7223 ft | 266 kts | 136° |
| 2026-05-07 15:36 | 42.40668 | -70.95420 | 6916 ft | 266 kts | 134° |
| 2026-05-07 15:36 | 42.39488 | -70.93501 | 6621 ft | 266 kts | 133° |
| 2026-05-07 15:36 | 42.38328 | -70.91560 | 6318 ft | 265 kts | 132° |
| 2026-05-07 15:37 | 42.37162 | -70.89596 | 5896 ft | 269 kts | 131° |
| 2026-05-07 15:37 | 42.35995 | -70.87637 | 5536 ft | 271 kts | 131° |
| 2026-05-07 15:37 | 42.34824 | -70.85671 | 5241 ft | 268 kts | 130° |
| 2026-05-07 15:37 | 42.33630 | -70.83734 | 4989 ft | 263 kts | 134° |
| 2026-05-07 15:38 | 42.32383 | -70.81975 | 4978 ft | 256 kts | 137° |
| 2026-05-07 15:38 | 42.31108 | -70.80296 | 4982 ft | 256 kts | 138° |
| 2026-05-07 15:38 | 42.29831 | -70.78630 | 4984 ft | 256 kts | 138° |
| 2026-05-07 15:38 | 42.28543 | -70.76932 | 4982 ft | 256 kts | 138° |
| 2026-05-07 15:39 | 42.27291 | -70.75304 | 4969 ft | 246 kts | 143° |
| 2026-05-07 15:39 | 42.25794 | -70.74307 | 4920 ft | 234 kts | 176° |
| 2026-05-07 15:39 | 42.24251 | -70.74405 | 4762 ft | 218 kts | 200° |
| 2026-05-07 15:39 | 42.22839 | -70.75163 | 4539 ft | 222 kts | 214° |
| 2026-05-07 15:40 | 42.21626 | -70.76373 | 4284 ft | 213 kts | 233° |
| 2026-05-07 15:40 | 42.20931 | -70.78079 | 4049 ft | 202 kts | 257° |
| 2026-05-07 15:40 | 42.20857 | -70.79851 | 3966 ft | 185 kts | 288° |
| 2026-05-07 15:40 | 42.21553 | -70.81212 | 3857 ft | 178 kts | 321° |
| 2026-05-07 15:41 | 42.22561 | -70.82179 | 3600 ft | 178 kts | 319° |
| 2026-05-07 15:41 | 42.23488 | -70.83305 | 3344 ft | 178 kts | 315° |
| 2026-05-07 15:41 | 42.24374 | -70.84456 | 3102 ft | 177 kts | 315° |
| 2026-05-07 15:41 | 42.25246 | -70.85596 | 2860 ft | 171 kts | 315° |
| 2026-05-07 15:42 | 42.26058 | -70.86668 | 2635 ft | 157 kts | 314° |
| 2026-05-07 15:42 | 42.26833 | -70.87690 | 2400 ft | 151 kts | 315° |
| 2026-05-07 15:42 | 42.27566 | -70.88664 | 2207 ft | 147 kts | 315° |
| 2026-05-07 15:42 | 42.28289 | -70.89625 | 2010 ft | 147 kts | 315° |
| 2026-05-07 15:43 | 42.29009 | -70.90580 | 1802 ft | 141 kts | 314° |
| 2026-05-07 15:43 | 42.29673 | -70.91468 | 1629 ft | 128 kts | 313° |
| 2026-05-07 15:43 | 42.30290 | -70.92293 | 1432 ft | 122 kts | 314° |
| 2026-05-07 15:43 | 42.30895 | -70.93100 | 1295 ft | 123 kts | 314° |
| 2026-05-07 15:44 | 42.31506 | -70.93918 | 1118 ft | 121 kts | 314° |
| 2026-05-07 15:44 | 42.32124 | -70.94714 | 929 ft | 127 kts | 316° |
| 2026-05-07 15:44 | 42.32782 | -70.95527 | 811 ft | 126 kts | 314° |
| 2026-05-07 15:44 | 42.33384 | -70.96384 | 647 ft | 128 kts | 311° |
| 2026-05-07 15:45 | 42.34019 | -70.97240 | 460 ft | 132 kts | 314° |
| 2026-05-07 15:45 | 42.34667 | -70.98113 | 294 ft | 129 kts | 312° |
| 2026-05-07 15:45 | 42.35297 | -70.98943 | 111 ft | 126 kts | 315° |
| 2026-05-07 15:45 | 42.35895 | -70.99741 | 12 ft | 105 kts | 315° |
| 2026-05-07 15:46 | 42.36427 | -71.00449 | 14 ft | 13 kts | 314° |
| 2026-05-07 15:46 | 42.36451 | -71.00481 | 14 ft | 9 kts | 314° |
| 2026-05-07 15:46 | 42.36498 | -71.00545 | 15 ft | 9 kts | 311° |
| 2026-05-07 15:47 | 42.36551 | -71.00654 | 15 ft | 21 kts | 301° |
| 2026-05-07 15:47 | 42.36607 | -71.00850 | 15 ft | 22 kts | 287° |
| 2026-05-07 15:47 | 42.36638 | -71.01047 | 15 ft | 21 kts | 281° |
| 2026-05-07 15:47 | 42.36672 | -71.01232 | 15 ft | 18 kts | 298° |
| 2026-05-07 15:48 | 42.36732 | -71.01333 | 15 ft | 3 kts | 307° |
| 2026-05-07 15:48 | 42.36745 | -71.01362 | 15 ft | 3 kts | 300° |
| 2026-05-07 15:48 | 42.36755 | -71.01386 | 15 ft | 0 kts | 298° |